Pescara - LIBP

Metar : METAR LIBP 250820Z AUTO 05007KT 350V080 9999 NCD 21/10 Q1027=

Taf : TAF LIBP 250500Z 2506/2606 VRB04KT 9999 SCT040 BECMG 2509/2511 02010KT BECMG 2517/2519 VRB05KT=

 Scopri come leggere i bollettini codificati...


Storico

LIBP 250820Z AUTO 05007KT 350V080 9999 NCD 21/10 Q1027
LIBP 250750Z AUTO 03007KT 360V070 9999 NCD 21/07 Q1027
LIBP 250720Z AUTO 03006KT 350V070 9999 NCD 21/08 Q1027
LIBP 250650Z AUTO VRB02KT 9999 NCD 20/10 Q1027
LIBP 250620Z AUTO 21003KT 9999 NCD 19/11 Q1027
LIBP 250550Z AUTO 24004KT 9999 NCD 17/12 Q1027
LIBP 250520Z AUTO 23003KT 200V260 9999 NCD 16/13 Q1027
LIBP 250450Z AUTO 24005KT 9999 NCD 14/12 Q1027
LIBP 250420Z AUTO 24006KT 9999 NCD 13/11 Q1027
LIBP 250350Z AUTO 23006KT 9999 NCD 13/11 Q1026
LIBP 250320Z AUTO 22004KT 9999 NCD 12/11 Q1026
LIBP 250250Z AUTO 22004KT 9999 NCD 12/11 Q1026
LIBP 250220Z AUTO 22005KT 9999 NCD 13/12 Q1026
LIBP 250150Z AUTO 22004KT 200V260 9999 NCD 13/11 Q1026
LIBP 250120Z AUTO 23004KT 9999 NCD 14/12 Q1026
LIBP 250050Z AUTO 23003KT 9999 NCD 13/12 Q1026
LIBP 250020Z AUTO VRB01KT 9999 FEW091/// 14/13 Q1026
LIBP 242350Z AUTO VRB02KT 9999 NCD 15/13 Q1026
LIBP 242320Z AUTO VRB02KT 9999 NCD 16/13 Q1026
LIBP 242250Z AUTO VRB01KT 9999 BKN082/// 17/14 Q1026
LIBP 242220Z AUTO VRB01KT 9999 BKN081/// 18/13 Q1026
LIBP 242150Z AUTO 21002KT 9999 OVC073/// 18/13 Q1026
LIBP 242120Z AUTO VRB01KT 9999 OVC075/// 19/13 Q1026
LIBP 242050Z AUTO 00000KT 9999 OVC074/// 19/13 Q1026
LIBP 242020Z AUTO 00000KT 9999 OVC067/// 19/13 Q1026
LIBP 241950Z AUTO 33002KT 9999 OVC068/// 19/13 Q1026
LIBP 241920Z AUTO 35003KT 320V040 9999 OVC069/// 19/13 Q1026
LIBP 241850Z AUTO 35005KT 9999 BKN071/// 19/13 Q1025
LIBP 241820Z AUTO 01005KT 9999 FEW071/// 20/12 Q1025
LIBP 241750Z AUTO VRB02KT 9999 BKN066/// 20/12 Q1025
LIBP 241720Z AUTO 33003KT 280V360 9999 BKN058/// 20/12 Q1025
LIBP 241650Z AUTO 35006KT 320V020 9999 BKN055/// 20/13 Q1025
LIBP 241620Z AUTO 34005KT 310V020 9999 FEW018/// OVC052/// 20/15 Q1025
LIBP 241550Z AUTO 02005KT 350V060 9999 OVC047/// 20/16 Q1024
LIBP 241520Z AUTO 04007KT 340V070 9999 FEW018/// BKN043/// 20/16 Q1024
LIBP 241450Z AUTO 04007KT 010V070 9999 FEW016/// BKN047/// BKN055/// 21/16 Q1024
LIBP 241420Z AUTO 03007KT 340V060 9999 BKN048/// 22/16 Q1024
LIBP 241350Z AUTO 05006KT 360V080 9999 BKN051/// 22/16 Q1024
LIBP 241320Z AUTO 04007KT 010V080 9999 SCT054/// BKN089/// 22/15 Q1024
LIBP 241250Z AUTO 03008KT 330V090 9999 NCD 23/15 Q1024
LIBP 241220Z AUTO 07008KT 020V100 9999 FEW053/// 23/15 Q1024
LIBP 241150Z AUTO 05009KT 9999 FEW140/// 23/15 Q1024
LIBP 241120Z AUTO 05008KT 360V080 9999 NCD 23/14 Q1024
LIBP 241050Z AUTO VRB07KT 9999 NCD 24/14 Q1024
LIBP 241020Z AUTO 03005KT 350V080 9999 FEW110/// 23/14 Q1024
LIBP 240950Z AUTO 06007KT 010V080 9999 FEW100/// 23/14 Q1024
LIBP 240920Z AUTO 03007KT 360V070 9999 FEW100/// 23/14 Q1024
LIBP 240850Z AUTO 04011KT 9999 NCD 23/15 Q1024
LIBP 240820Z AUTO 04011KT 9999 SCT094/// 23/15 Q1024
LIBP 240750Z AUTO 03007KT 340V060 9999 FEW099/// 23/14 Q1024
LIBP 240720Z AUTO 03007KT 350V060 9999 BKN100/// 23/15 Q1024
LIBP 240650Z AUTO 02007KT 350V070 9999 BKN100/// 23/16 Q1023
LIBP 240620Z AUTO VRB03KT 9999 BKN100/// 22/13 Q1022
LIBP 240550Z AUTO 34006KT 300V010 9999 BKN100/// 21/12 Q1021
LIBP 240520Z AUTO 35004KT 320V020 9999 BKN120/// 22/10 Q1021
LIBP 240450Z AUTO 27006KT 9999 BKN120/// 22/09 Q1020
LIBP 240420Z AUTO 24006KT 9999 BKN120/// 23/08 Q1020
LIBP 240350Z AUTO 26007KT 220V290 9999 BKN130/// BKN170/// 23/08 Q1020
LIBP 240320Z AUTO 23009KT 9999 BKN180/// 21/08 Q1019
LIBP 240250Z AUTO 25005KT 9999 OVC180/// 22/08 Q1019
LIBP 240220Z AUTO 23005KT 9999 BKN190/// 21/08 Q1019
LIBP 240150Z AUTO 23006KT 9999 FEW200/// BKN230/// 21/09 Q1020
LIBP 240120Z AUTO VRB02KT 9999 NCD 18/10 Q1020
LIBP 240050Z AUTO 25003KT 9999 NCD 18/10 Q1020
LIBP 240020Z AUTO 20002KT 9999 NCD 16/11 Q1020
LIBP 232350Z AUTO VRB02KT 9999 NCD 17/12 Q1020
LIBP 232250Z AUTO 23003KT 210V270 9999 NCD 17/13 Q1021
LIBP 232220Z AUTO VRB02KT 9999 NCD 18/13 Q1021
LIBP 232150Z AUTO 24003KT 9999 NCD 18/13 Q1021
LIBP 232120Z AUTO 22004KT 210V270 9999 NCD 18/13 Q1021
LIBP 232050Z AUTO 21004KT 9999 NCD 19/13 Q1021
LIBP 232020Z AUTO VRB01KT 9999 NCD 19/13 Q1021
LIBP 231950Z AUTO VRB01KT 9999 NCD 21/13 Q1021
LIBP 231920Z AUTO VRB01KT 9999 NCD 24/11 Q1021
LIBP 231850Z AUTO VRB01KT 9999 NCD 25/11 Q1021
LIBP 231820Z AUTO 11003KT 090V150 9999 NCD 26/11 Q1021
LIBP 231750Z AUTO 11003KT 9999 NCD 26/11 Q1021
LIBP 231720Z AUTO 11005KT 080V150 9999 NCD 27/11 Q1021
LIBP 231650Z AUTO 09005KT 060V140 9999 NCD 27/11 Q1021
LIBP 231620Z AUTO 09005KT 050V110 9999 NCD 27/12 Q1021
LIBP 231550Z AUTO 10006KT 050V130 9999 NCD 28/11 Q1021
LIBP 231520Z AUTO 10005KT 050V130 9999 NCD 28/11 Q1022
LIBP 231450Z AUTO 08005KT 030V120 9999 NCD 27/11 Q1022
LIBP 231420Z AUTO 08006KT 050V120 9999 NCD 27/11 Q1022
LIBP 231350Z AUTO 08007KT 050V110 9999 NCD 26/12 Q1023
LIBP 231320Z AUTO 07008KT 030V100 9999 NCD 27/12 Q1023
LIBP 231250Z AUTO 08008KT 050V110 9999 NCD 27/11 Q1023
LIBP 231220Z AUTO 09010KT 9999 NCD 27/12 Q1023
LIBP 231150Z AUTO 07009KT 050V110 9999 NCD 27/11 Q1023
LIBP 231120Z AUTO 08009KT 9999 NCD 27/12 Q1023
LIBP 231050Z AUTO 07009KT 9999 NCD 27/13 Q1023
LIBP 231020Z AUTO 05009KT 9999 NCD 27/12 Q1024
LIBP 230950Z AUTO 06010KT 9999 NCD 27/11 Q1024
LIBP 230920Z AUTO 05008KT 9999 NCD 27/10 Q1024
LIBP 230850Z AUTO 04007KT 9999 NCD 27/13 Q1024
LIBP 230820Z AUTO 04005KT 010V070 9999 NCD 27/12 Q1024
LIBP 230750Z AUTO VRB03KT 9999 NCD 27/12 Q1024
LIBP 230720Z AUTO 24006KT 200V300 9999 NCD 26/12 Q1024
LIBP 230650Z AUTO 25005KT 220V280 9999 NCD 25/12 Q1024
LIBP 230620Z AUTO 25005KT 230V290 9999 NCD 23/13 Q1024
LIBP 230550Z AUTO 25005KT 9999 NCD 21/12 Q1023
LIBP 230520Z AUTO 23004KT 9999 NCD 18/11 Q1023
LIBP 230450Z AUTO 22004KT 9999 NCD 16/11 Q1024
LIBP 230420Z AUTO 22005KT 9999 NCD 14/10 Q1024
LIBP 230350Z AUTO 23005KT 9999 NCD 12/09 Q1023
LIBP 230250Z AUTO 25004KT 9999 NCD 13/09 Q1023
LIBP 230220Z AUTO 20005KT 9999 NCD 13/09 Q1024
LIBP 230150Z AUTO 23005KT 9999 NCD 13/09 Q1024
LIBP 230120Z AUTO 21005KT 9999 NCD 12/09 Q1024
LIBP 230050Z AUTO 21006KT 9999 NCD 12/09 Q1024
LIBP 230020Z AUTO 20006KT 9999 NCD 12/09 Q1024
LIBP 222350Z AUTO 23005KT 9999 NCD 13/10 Q1024
LIBP 222250Z AUTO 23005KT 9999 NCD 14/10 Q1024
LIBP 222220Z AUTO 25006KT 9999 NCD 15/10 Q1024
LIBP 222150Z AUTO 24005KT 9999 NCD 15/10 Q1024
LIBP 222120Z AUTO 24005KT 9999 NCD 15/10 Q1024
LIBP 222050Z AUTO 23005KT 9999 NCD 16/09 Q1025
LIBP 222020Z AUTO 23005KT 9999 NCD 16/09 Q1025
LIBP 221950Z AUTO VRB01KT 9999 NCD 17/09 Q1024
LIBP 221920Z AUTO 32002KT 9999 NCD 17/09 Q1024
LIBP 221850Z AUTO VRB02KT 9999 NCD 19/08 Q1024
LIBP 221820Z AUTO 07005KT 040V100 9999 NCD 21/06 Q1024
LIBP 221750Z AUTO 06005KT 9999 NCD 21/07 Q1023
LIBP 221720Z AUTO 07005KT 9999 NCD 23/08 Q1023
LIBP 221650Z AUTO 06006KT 9999 NCD 24/07 Q1023
LIBP 221620Z AUTO 06004KT 020V090 9999 NCD 24/06 Q1023
LIBP 221550Z AUTO 05005KT 020V080 9999 NCD 24/08 Q1024
LIBP 221520Z AUTO 06006KT 030V090 9999 FEW240/// 24/08 Q1024
LIBP 221450Z AUTO 09008KT 040V110 9999 FEW230/// 23/07 Q1024
LIBP 221420Z AUTO 08008KT 9999 FEW230/// 23/08 Q1025
LIBP 221350Z AUTO 06008KT 030V090 9999 FEW230/// 23/10 Q1025
LIBP 221320Z AUTO 06008KT 030V090 9999 NCD 23/09 Q1024
LIBP 221250Z AUTO 05009KT 020V080 9999 NCD 24/08 Q1024
LIBP 221220Z AUTO 06008KT 9999 NCD 25/08 Q1024
LIBP 221150Z AUTO 07008KT 030V110 9999 NCD 25/08 Q1024
LIBP 221120Z AUTO 07007KT 020V120 9999 NCD 24/07 Q1024
LIBP 221050Z AUTO 06007KT 020V100 9999 NCD 24/08 Q1024
LIBP 221020Z AUTO 04005KT 310V070 9999 NCD 24/07 Q1024
LIBP 220950Z AUTO 05004KT 350V120 9999 NCD 24/07 Q1024
LIBP 220850Z AUTO 06004KT 020V140 9999 NCD 23/06 Q1025
LIBP 220820Z AUTO VRB02KT 9999 NCD 23/06 Q1024
LIBP 220750Z AUTO VRB02KT 9999 NCD 22/08 Q1024
LIBP 220720Z AUTO VRB02KT 9999 NCD 21/09 Q1024
LIBP 220650Z AUTO 22004KT 190V270 9999 NCD 19/10 Q1024
LIBP 220620Z AUTO 22004KT 200V260 9999 NCD 17/09 Q1024
LIBP 220550Z AUTO 23006KT 9999 NCD 15/09 Q1023
LIBP 220520Z AUTO 24005KT 9999 NCD 14/09 Q1023
LIBP 220450Z AUTO 22005KT 9999 NCD 12/08 Q1023
LIBP 220350Z AUTO 21005KT 9999 NCD 10/07 Q1023
LIBP 220320Z AUTO 25005KT 9999 NCD 11/08 Q1023
LIBP 220250Z AUTO 25005KT 210V270 9999 NCD 11/08 Q1022
LIBP 220220Z AUTO 24006KT 9999 NCD 11/08 Q1022
LIBP 220150Z AUTO 24006KT 9999 NCD 11/08 Q1022
LIBP 220120Z AUTO 24006KT 9999 NCD 12/09 Q1022
LIBP 220050Z AUTO 24005KT 9999 NCD 12/09 Q1022
LIBP 220020Z AUTO 25005KT 9999 NCD 12/09 Q1022
LIBP 212350Z AUTO 24006KT 9999 NCD 12/09 Q1022
LIBP 212320Z AUTO 24007KT 9999 NCD 12/09 Q1022
LIBP 212250Z AUTO 24006KT 9999 NCD 13/09 Q1022
LIBP 212220Z AUTO 25005KT 9999 NCD 14/10 Q1022
LIBP 212150Z AUTO 24006KT 9999 NCD 14/09 Q1021
LIBP 212050Z AUTO 24004KT 9999 NCD 16/09 Q1021
LIBP 212020Z AUTO 22006KT 9999 NCD 16/09 Q1020
LIBP 211950Z AUTO VRB02KT 9999 NCD 18/09 Q1020
LIBP 211920Z AUTO 33004KT 290V360 9999 NCD 18/09 Q1019
LIBP 211850Z AUTO 34005KT 300V030 9999 NCD 19/09 Q1018
LIBP 211820Z AUTO 32003KT 270V010 9999 NCD 19/08 Q1018
LIBP 211750Z AUTO 34005KT 300V010 9999 NCD 20/10 Q1018
LIBP 211720Z AUTO 34007KT 300V020 9999 NCD 20/10 Q1017
LIBP 211650Z AUTO 35009KT 320V020 9999 NCD 21/11 Q1017
LIBP 211620Z AUTO 36010KT 330V040 9999 NCD 21/10 Q1017
LIBP 211550Z AUTO 01011KT 9999 NCD 21/10 Q1017
LIBP 211520Z AUTO 03009KT 350V060 9999 NCD 21/11 Q1017
LIBP 211450Z AUTO 03012KT 9999 NCD 22/11 Q1017

Informazioni elaborate utilizzando, tra l’altro, dati e prodotti del Servizio Meteorologico dell’Aeronautica Militare pubblicati sul sito www.meteoam.it e della National Oceanic and Atmospheric Administration (NOAA)

Ultimi caricamenti...


EI-GRS Boeing 737-81M AlbaStar

 


EI-GRS Boeing 737-81M AlbaStar

 


N4173N 3 12 2018(1)

Questo sito non utilizza cookie di profilazione. Il sito utilizza cookie tecnici, di analisi anonima di prima parte e di terze parti per servizi di social network.